This is the latest recevied weather packets stored in our database for station/object UR7D-10. If no packets are shown the sender has not sent any weather packets the latest 10 day(s).
| Time | Temp. | Humidity | Pressure | Rain* | Wind** | Luminosity | Snow |
|---|---|---|---|---|---|---|---|
| 1778195396 | 14.44° C | 86% | 1015.5 hPa | 0.76 mm | - | - | - |
| 1778191793 | 13.89° C | 87% | 1015.4 hPa | 0.51 mm | - | - | - |
| 1778188189 | 15° C | 86% | 1015.5 hPa | 1.52 mm | - | - | - |
| 1778184585 | 15.56° C | 84% | 1015.4 hPa | 0 mm | - | - | - |
| 1778180982 | 14.44° C | 86% | 1015.2 hPa | 0 mm | - | - | - |
| 1778177379 | 16.11° C | 77% | 1014.6 hPa | 0 mm | - | - | - |
| 1778170172 | 16.11° C | 85% | 1014.6 hPa | 0.25 mm | - | - | - |
| 1778166568 | 16.67° C | 85% | 1014.8 hPa | 0.51 mm | - | - | - |
| 1778162965 | 16.67° C | 83% | 1015.1 hPa | 0.76 mm | - | - | - |
| 1778159361 | 17.78° C | 77% | 1015.2 hPa | 0.25 mm | - | - | - |
| 1778155758 | 18.33° C | 69% | 1014.6 hPa | 0.25 mm | - | - | - |
| 1778152154 | 20.56° C | 58% | 1014.1 hPa | 0 mm | - | - | - |
| 1778148551 | 20° C | 59% | 1014.2 hPa | 0 mm | - | - | - |
| 1778144949 | 21.11° C | 53% | 1014.1 hPa | 0 mm | - | - | - |
| 1778141345 | 20.56° C | 56% | 1013.3 hPa | 0 mm | - | - | - |
| 1778137741 | 20° C | 57% | 1013.3 hPa | 0 mm | - | - | - |
| 1778134137 | 18.33° C | 61% | 1013.1 hPa | 0 mm | - | - | - |
| 1778130534 | 17.22° C | 65% | 1012.6 hPa | 0 mm | - | - | - |
| 1778126930 | 13.33° C | 77% | 1013.1 hPa | 0 mm | - | - | - |
| 1778123327 | 12.78° C | 78% | 1012.4 hPa | 0 mm | - | - | - |
| 1778119723 | 15° C | 72% | 1012.3 hPa | 0 mm | - | - | - |
| 1778116120 | 14.44° C | 73% | 1011.9 hPa | 0 mm | - | - | - |
| 1778112516 | 15° C | 70% | 1011.7 hPa | 0 mm | - | - | - |
| 1778108913 | 17.22° C | 62% | 1011.7 hPa | 0 mm | - | - | - |
| 1778105310 | 20° C | 52% | 1011.6 hPa | 0 mm | - | - | - |
* Rain latest hour (hover to see other rain measurements)
** Current wind speed in m/s (hover to see current wind gust speed)